Time;durP1;ratioP1;P1;durP2;ratioP2;P2;SDS_P1;SDS_P2;PMS_P1;PMS_P2;Temp;Humidity;BMP_temperature;BMP_pressure;BME280_temperature;BME280_humidity;BME280_pressure;Samples;Min_cycle;Max_cycle;Signal;HPM_P1;HPM_P2
2023/12/12 00:00:29;;;;;;;13.63;4.30;;;;;;;;;;5094100;27;20108;-77
2023/12/12 00:02:56;;;;;;;10.52;3.65;;;;;;;;;;5109021;27;20476;-77
2023/12/12 00:05:22;;;;;;;8.38;3.60;;;;;;;;;;5114187;27;20130;-77
2023/12/12 00:07:52;;;;;;;11.02;3.78;;;;;;;;;;5114987;27;20443;-77
2023/12/12 00:10:21;;;;;;;13.82;4.10;;;;;;;;;;5130366;27;20071;-77
2023/12/12 00:12:50;;;;;;;10.93;3.92;;;;;;;;;;5130388;27;20476;-77
2023/12/12 00:15:18;;;;;;;;;;;;;;;;;;5101114;27;20125;-77
2023/12/12 00:17:47;;;;;;;20.55;5.85;;;;;;;;;;5126517;27;19919;-77
2023/12/12 00:20:13;;;;;;;;;;;;;;;;;;5131225;27;20046;-77
2023/12/12 00:22:48;;;;;;;16.13;5.18;;;;;;;;;;5132306;27;20288;-77
2023/12/12 00:25:14;;;;;;;15.13;4.28;;;;;;;;;;5095736;27;20205;-77
2023/12/12 00:27:41;;;;;;;14.60;5.10;;;;;;;;;;5094283;27;20656;-77
2023/12/12 00:30:10;;;;;;;11.98;5.05;;;;;;;;;;5102652;27;20126;-78
2023/12/12 00:32:37;;;;;;;;;;;;;;;;;;5077466;28;20048;-76
2023/12/12 00:35:04;;;;;;;13.20;5.05;;;;;;;;;;5097295;27;19919;-78
2023/12/12 00:37:30;;;;;;;16.88;5.38;;;;;;;;;;5120268;27;20049;-77
2023/12/12 00:39:59;;;;;;;13.05;5.55;;;;;;;;;;5132078;27;20055;-77
2023/12/12 00:42:25;;;;;;;;;;;;;;;;;;5131191;28;20130;-77
2023/12/12 00:44:52;;;;;;;17.57;5.63;;;;;;;;;;5129299;28;19927;-77
2023/12/12 00:47:18;;;;;;;18.17;5.28;;;;;;;;;;5102413;28;20297;-77
2023/12/12 00:49:44;;;;;;;;;;;;;;;;;;5076191;28;20044;-77
2023/12/12 00:52:14;;;;;;;12.05;5.30;;;;;;;;;;5092477;28;19920;-77
2023/12/12 00:54:40;;;;;;;16.55;5.30;;;;;;;;;;5116247;28;20070;-77
2023/12/12 00:57:06;;;;;;;;;;;;;;;;;;5078611;28;20049;-77
2023/12/12 00:59:33;;;;;;;16.33;5.25;;;;;;;;;;5095546;28;20489;-77
2023/12/12 01:01:58;;;;;;;;;;;;;;;;;;5109308;28;20101;-77
2023/12/12 01:04:28;;;;;;;15.80;5.40;;;;;;;;;;5117423;28;20361;-77
2023/12/12 01:06:57;;;;;;;13.55;5.85;;;;;;;;;;5112773;28;20050;-77
2023/12/12 01:09:23;;;;;;;13.52;5.07;;;;;;;;;;5099406;28;20054;-77
2023/12/12 01:11:49;;;;;;;;;;;;;;;;;;5060127;28;20050;-80
2023/12/12 01:14:18;;;;;;;14.00;5.47;;;;;;;;;;5127072;28;19919;-76
2023/12/12 01:16:44;;;;;;;;;;;;;;;;;;5096029;28;20054;-77
2023/12/12 01:19:10;;;;;;;15.10;5.10;;;;;;;;;;5110890;28;19924;-76
2023/12/12 01:21:36;;;;;;;;;;;;;;;;;;5127617;28;20487;-77
2023/12/12 01:24:12;;;;;;;11.15;4.80;;;;;;;;;;5123766;28;19930;-77
2023/12/12 01:26:38;;;;;;;;;;;;;;;;;;5113822;28;20366;-77
2023/12/12 01:29:05;;;;;;;13.93;5.05;;;;;;;;;;5093014;28;19927;-77
2023/12/12 01:31:31;;;;;;;17.80;5.38;;;;;;;;;;5079797;28;20066;-77
2023/12/12 01:33:57;;;;;;;;;;;;;;;;;;5081146;28;20153;-77
2023/12/12 01:36:28;;;;;;;15.95;5.95;;;;;;;;;;5139502;27;20288;-76
2023/12/12 01:38:54;;;;;;;21.77;7.07;;;;;;;;;;5096520;28;20532;-76
2023/12/12 01:41:20;;;;;;;;;;;;;;;;;;5097798;28;20066;-77
2023/12/12 01:43:55;;;;;;;;;;;;;;;;;;5129797;27;19965;-78
2023/12/12 01:46:21;;;;;;;;;;;;;;;;;;5114983;28;20506;-77
2023/12/12 01:48:47;;;;;;;;;;;;;;;;;;5130312;27;19926;-77
2023/12/12 01:51:23;;;;;;;;;;;;;;;;;;5146062;27;20390;-77
2023/12/12 01:53:49;;;;;;;;;;;;;;;;;;5151160;27;19930;-77
2023/12/12 01:56:15;;;;;;;;;;;;;;;;;;5113553;28;19923;-77
2023/12/12 01:58:44;;;;;;;;;;;;;;;;;;5129521;27;19927;-77
2023/12/12 02:01:13;;;;;;;;;;;;;;;;;;5130364;27;19919;-77
2023/12/12 02:03:40;;;;;;;;;;;;;;;;;;5113644;28;19977;-77
2023/12/12 02:06:06;;;;;;;;;;;;;;;;;;5114525;28;19920;-77
2023/12/12 02:08:32;;;;;;;;;;;;;;;;;;5127158;27;20368;-77
2023/12/12 02:10:58;;;;;;;;;;;;;;;;;;5127809;27;19919;-78
2023/12/12 02:13:29;;;;;;;;;;;;;;;;;;5134943;27;19919;-77
2023/12/12 02:15:55;;;;;;;;;;;;;;;;;;5117651;27;19945;-77
2023/12/12 02:18:24;;;;;;;;;;;;;;;;;;5150756;27;19930;-77
2023/12/12 02:20:51;;;;;;;;;;;;;;;;;;5117044;27;19919;-77
2023/12/12 02:23:26;;;;;;;;;;;;;;;;;;5145239;27;20402;-77
2023/12/12 02:25:52;;;;;;;;;;;;;;;;;;5096546;28;19927;-77
2023/12/12 02:28:18;;;;;;;;;;;;;;;;;;5076539;28;19947;-77
2023/12/12 02:30:44;;;;;;;;;;;;;;;;;;5050375;28;19975;-77
2023/12/12 02:33:10;;;;;;;;;;;;;;;;;;5050478;28;20429;-77
2023/12/12 02:35:43;;;;;;;;;;;;;;;;;;5050319;28;20466;-77
2023/12/12 02:38:09;;;;;;;;;;;;;;;;;;5051683;28;19976;-79
2023/12/12 02:40:35;;;;;;;;;;;;;;;;;;5053321;28;20444;-77
2023/12/12 02:43:01;;;;;;;;;;;;;;;;;;5067485;28;19928;-76
2023/12/12 02:45:27;;;;;;;;;;;;;;;;;;5068154;28;20289;-77
2023/12/12 02:47:59;;;;;;;;;;;;;;;;;;5067938;28;20443;-77
2023/12/12 02:50:25;;;;;;;;;;;;;;;;;;5068031;28;19920;-77
2023/12/12 02:52:57;;;;;;;;;;;;;;;;;;5078166;28;19999;-77
2023/12/12 02:55:23;;;;;;;;;;;;;;;;;;5087940;28;20446;-79
2023/12/12 02:57:56;;;;;;;;;;;;;;;;;;5052938;28;19927;-77
2023/12/12 03:00:23;;;;;;;;;;;;;;;;;;5091328;28;19924;-77
2023/12/12 03:02:52;;;;;;;;;;;;;;;;;;5111611;28;20003;-77
2023/12/12 03:05:21;;;;;;;;;;;;;;;;;;5129907;27;19926;-76
2023/12/12 03:07:53;;;;;;;;;;;;;;;;;;5127648;27;20519;-79
2023/12/12 03:10:19;;;;;;;;;;;;;;;;;;5112081;27;20019;-77
2023/12/12 03:12:45;;;;;;;;;;;;;;;;;;5091476;28;20416;-77
2023/12/12 03:15:19;;;;;;;;;;;;;;;;;;5108787;28;19920;-76
2023/12/12 03:17:46;;;;;;;;;;;;;;;;;;5088698;28;19920;-77
2023/12/12 03:20:12;;;;;;;;;;;;;;;;;;5112689;28;19919;-77
2023/12/12 03:22:38;;;;;;;;;;;;;;;;;;5112602;28;19969;-80
2023/12/12 03:25:08;;;;;;;;;;;;;;;;;;5129021;27;19919;-77
2023/12/12 03:27:34;;;;;;;;;;;;;;;;;;5111117;28;19931;-77
2023/12/12 03:30:00;;;;;;;;;;;;;;;;;;5095724;28;19919;-77
2023/12/12 03:32:26;;;;;;;;;;;;;;;;;;5083493;28;19970;-77
2023/12/12 03:35:01;;;;;;;;;;;;;;;;;;5074813;28;19927;-77
2023/12/12 03:37:27;;;;;;;;;;;;;;;;;;5115418;27;19963;-78
2023/12/12 03:39:53;;;;;;;;;;;;;;;;;;5119402;27;19969;-77
2023/12/12 03:42:19;;;;;;;;;;;;;;;;;;5122213;27;19924;-77
2023/12/12 03:44:45;;;;;;;;;;;;;;;;;;5108457;28;19919;-77
2023/12/12 03:47:18;;;;;;;;;;;;;;;;;;5099037;28;19927;-77
2023/12/12 03:49:54;;;;;;;;;;;;;;;;;;5092598;28;19920;-77
2023/12/12 03:52:26;;;;;;;;;;;;;;;;;;5114445;27;19966;-77
2023/12/12 03:54:52;;;;;;;;;;;;;;;;;;5091022;28;19931;-77
2023/12/12 03:57:19;;;;;;;;;;;;;;;;;;5093134;28;20427;-78
2023/12/12 03:59:49;;;;;;;;;;;;;;;;;;5145232;27;19973;-77
2023/12/12 04:02:18;;;;;;;;;;;;;;;;;;5127089;27;19920;-76
2023/12/12 04:04:50;;;;;;;;;;;;;;;;;;5091007;28;20396;-77
2023/12/12 04:07:20;;;;;;;;;;;;;;;;;;5092630;28;20014;-77
2023/12/12 04:09:55;;;;;;;;;;;;;;;;;;5079966;28;19927;-76
2023/12/12 04:12:25;;;;;;;;;;;;;;;;;;5123477;27;20377;-77
2023/12/12 04:14:54;;;;;;;;;;;;;;;;;;5091759;28;19920;-76
2023/12/12 04:17:20;;;;;;;;;;;;;;;;;;5134946;27;20386;-78
2023/12/12 04:19:46;;;;;;;;;;;;;;;;;;5143216;27;19926;-77
2023/12/12 04:22:13;;;;;;;;;;;;;;;;;;5111002;28;20369;-77
2023/12/12 04:24:42;;;;;;;;;;;;;;;;;;5145329;27;19924;-77
2023/12/12 04:27:08;;;;;;;;;;;;;;;;;;5127366;27;19927;-77
2023/12/12 04:29:34;;;;;;;;;;;;;;;;;;5110688;28;20360;-77
2023/12/12 04:32:00;;;;;;;;;;;;;;;;;;5103235;28;19920;-77
2023/12/12 04:34:28;;;;;;;;;;;;;;;;;;5092005;28;19926;-77
2023/12/12 04:36:54;;;;;;;;;;;;;;;;;;5109176;28;19920;-77
2023/12/12 04:39:20;;;;;;;;;;;;;;;;;;5127748;27;19965;-77
2023/12/12 04:41:46;;;;;;;;;;;;;;;;;;5111076;28;20010;-80
2023/12/12 04:44:21;;;;;;;;;;;;;;;;;;5112348;28;19919;-77
2023/12/12 04:46:48;;;;;;;;;;;;;;;;;;5127641;28;19934;-81
2023/12/12 04:49:14;;;;;;;;;;;;;;;;;;5126720;28;19920;-77
2023/12/12 04:51:40;;;;;;;;;;;;;;;;;;5109847;28;19920;-77
2023/12/12 04:54:09;;;;;;;;;;;;;;;;;;5106742;28;20096;-76
2023/12/12 04:56:39;;;;;;;;;;;;;;;;;;5124138;28;20372;-76
2023/12/12 04:59:05;;;;;;;;;;;;;;;;;;5106084;28;20288;-77
2023/12/12 05:01:31;;;;;;;;;;;;;;;;;;5107118;28;19927;-77
2023/12/12 05:03:59;;;;;;;;;;;;;;;;;;5109057;28;19924;-77
2023/12/12 05:06:25;;;;;;;;;;;;;;;;;;5129528;27;19927;-78
2023/12/12 05:08:53;;;;;;;;;;;;;;;;;;5093906;28;19938;-77
2023/12/12 05:11:31;;;;;;;;;;;;;;;;;;5127359;27;19927;-78
2023/12/12 05:13:57;;;;;;;;;;;;;;;;;;5092530;28;20299;-77
2023/12/12 05:16:24;;;;;;;;;;;;;;;;;;5099161;28;20390;-77
2023/12/12 05:18:50;;;;;;;;;;;;;;;;;;5113606;28;19927;-80
2023/12/12 05:21:21;;;;;;;;;;;;;;;;;;5132344;27;20072;-77
2023/12/12 05:23:48;;;;;;;;;;;;;;;;;;5129339;27;20376;-77
2023/12/12 05:26:14;;;;;;;;;;;;;;;;;;5111670;28;19970;-77
2023/12/12 05:28:46;;;;;;;;;;;;;;;;;;5125554;27;20450;-77
2023/12/12 05:31:17;;;;;;;;;;;;;;;;;;5110906;28;19977;-77
2023/12/12 05:33:43;;;;;;;;;;;;;;;;;;5110977;28;19919;-77
2023/12/12 05:36:15;;;;;;;;;;;;;;;;;;5110424;28;19920;-77
2023/12/12 05:38:42;;;;;;;;;;;;;;;;;;5096401;28;19970;-79
2023/12/12 05:41:08;;;;;;;;;;;;;;;;;;5096148;28;19924;-77
2023/12/12 05:43:34;;;;;;;;;;;;;;;;;;5110734;28;20012;-77
2023/12/12 05:46:00;;;;;;;;;;;;;;;;;;5123142;27;19942;-78
2023/12/12 05:48:26;;;;;;;;;;;;;;;;;;5110591;28;19920;-77
2023/12/12 05:51:03;;;;;;;;;;;;;;;;;;5102393;28;20394;-77
2023/12/12 05:53:29;;;;;;;;;;;;;;;;;;5148580;27;20388;-77
2023/12/12 05:55:55;;;;;;;;;;;;;;;;;;5115171;28;20420;-76
2023/12/12 05:58:24;;;;;;;;;;;;;;;;;;5104677;28;19920;-76
2023/12/12 06:00:59;;;;;;;;;;;;;;;;;;5129661;27;20037;-76
2023/12/12 06:03:31;;;;;;;;;;;;;;;;;;5094523;28;20260;-76
2023/12/12 06:06:02;;;;;;;;;;;;;;;;;;5126650;27;19920;-76
2023/12/12 06:08:28;;;;;;;;;;;;;;;;;;5127439;27;19927;-76
2023/12/12 06:10:54;;;;;;;;;;;;;;;;;;5110877;28;20350;-79
2023/12/12 06:13:20;;;;;;;;;;;;;;;;;;5093059;28;20007;-76
2023/12/12 06:15:46;;;;;;;;;;;;;;;;;;5093784;28;19951;-77
2023/12/12 06:18:13;;;;;;;;;;;;;;;;;;5109401;28;19924;-75
2023/12/12 06:20:43;;;;;;;;;;;;;;;;;;5142673;27;20427;-76
2023/12/12 06:23:13;;;;;;;;;;;;;;;;;;5113226;28;19930;-78
2023/12/12 06:25:39;;;;;;;;;;;;;;;;;;5147650;27;19919;-75
2023/12/12 06:28:08;;;;;;;;;;;;;;;;;;5134549;27;19920;-75
2023/12/12 06:30:34;;;;;;;;;;;;;;;;;;5142772;27;19965;-76
2023/12/12 06:33:09;;;;;;;;;;;;;;;;;;5139685;27;19923;-76
2023/12/12 06:35:44;;;;;;;;;;;;;;;;;;5124913;27;20377;-76
2023/12/12 06:38:10;;;;;;;;;;;;;;;;;;5126987;27;19920;-76
2023/12/12 06:40:37;;;;;;;;;;;;;;;;;;5125426;27;19920;-76
2023/12/12 06:43:03;;;;;;;;;;;;;;;;;;5126115;27;19942;-76
2023/12/12 06:45:29;;;;;;;;;;;;;;;;;;5110351;28;19920;-76
2023/12/12 06:47:55;;;;;;;;;;;;;;;;;;5140043;27;19969;-76
2023/12/12 06:50:27;;;;;;;;;;;;;;;;;;5130546;27;19926;-76
2023/12/12 06:52:56;;;;;;;;;;;;;;;;;;5145813;27;19969;-80
2023/12/12 06:55:22;;;;;;;;;;;;;;;;;;5112981;28;19963;-76
2023/12/12 06:57:51;;;;;;;;;;;;;;;;;;5130032;27;19927;-76
2023/12/12 07:00:17;;;;;;;;;;;;;;;;;;5125484;27;20093;-76
2023/12/12 07:02:50;;;;;;;;;;;;;;;;;;5108254;28;20372;-75
2023/12/12 07:05:17;;;;;;;;;;;;;;;;;;5146608;27;19934;-76
2023/12/12 07:07:47;;;;;;;;;;;;;;;;;;5113035;28;19919;-76
2023/12/12 07:10:13;;;;;;;;;;;;;;;;;;5133801;27;19920;-76
2023/12/12 07:12:53;;;;;;;;;;;;;;;;;;5122189;27;19919;-76
2023/12/12 07:15:20;;;;;;;;;;;;;;;;;;5104971;28;19923;-76
2023/12/12 07:17:55;;;;;;;;;;;;;;;;;;5092831;28;19920;-76
2023/12/12 07:20:22;;;;;;;;;;;;;;;;;;5092980;28;19930;-77
2023/12/12 07:22:48;;;;;;;;;;;;;;;;;;5092333;28;19923;-76
2023/12/12 07:25:15;;;;;;;;;;;;;;;;;;5140203;27;19973;-77
2023/12/12 07:27:44;;;;;;;;;;;;;;;;;;5103618;28;20399;-76
2023/12/12 07:30:11;;;;;;;;;;;;;;;;;;5113161;28;19920;-76
2023/12/12 07:32:36;;;;;;;;;;;;;;;;;;5110453;28;19920;-79
2023/12/12 07:35:02;;;;;;;;;;;;;;;;;;5110603;27;19967;-78
2023/12/12 07:37:28;;;;;;;;;;;;;;;;;;5111109;28;20353;-80
2023/12/12 07:39:54;;;;;;;;;;;;;;;;;;5103921;28;19920;-81
2023/12/12 07:42:20;;;;;;;;;;;;;;;;;;5127867;27;20034;-77
2023/12/12 07:44:46;;;;;;;;;;;;;;;;;;5130007;27;20341;-78
2023/12/12 07:47:12;;;;;;;;;;;;;;;;;;5094205;28;20369;-78
2023/12/12 07:49:38;;;;;;;;;;;;;;;;;;5112344;28;19920;-76
2023/12/12 07:52:04;;;;;;;;;;;;;;;;;;5131664;27;19934;-76
2023/12/12 07:54:32;;;;;;;;;;;;;;;;;;5137512;27;19924;-76
2023/12/12 07:57:23;;;;;;;;;;;;;;;;;;5115510;27;19919;-76
2023/12/12 07:59:55;;;;;;;;;;;;;;;;;;5112771;28;20058;-77
2023/12/12 08:02:31;;;;;;;;;;;;;;;;;;5140200;27;20325;-75
2023/12/12 08:05:12;;;;;;;;;;;;;;;;;;5131914;27;19930;-76
2023/12/12 08:07:48;;;;;;;;;;;;;;;;;;5120280;27;19962;-76
2023/12/12 08:10:18;;;;;;;;;;;;;;;;;;5100483;28;19943;-76
2023/12/12 08:13:03;;;;;;;;;;;;;;;;;;5104318;28;20330;-78
2023/12/12 08:15:37;;;;;;;;;;;;;;;;;;5094695;28;20002;-75
2023/12/12 08:18:24;;;;;;;;;;;;;;;;;;5110887;28;20407;-78
2023/12/12 08:21:02;;;;;;;;;;;;;;;;;;5117216;27;19985;-77
2023/12/12 08:23:41;;;;;;;;;;;;;;;;;;5116572;27;19994;-78
2023/12/12 08:26:25;;;;;;;;;;;;;;;;;;5076193;28;19977;-77
2023/12/12 08:29:03;;;;;;;;;;;;;;;;;;5123362;27;20396;-76
2023/12/12 08:31:29;;;;;;;;;;;;;;;;;;5130954;27;19961;-77
2023/12/12 08:34:09;;;;;;;;;;;;;;;;;;5132069;27;19919;-76
2023/12/12 08:36:50;;;;;;;;;;;;;;;;;;5111319;28;19926;-76
2023/12/12 08:39:35;;;;;;;;;;;;;;;;;;5108265;28;19920;-78
2023/12/12 08:42:02;;;;;;;;;;;;;;;;;;5089380;28;20392;-77
2023/12/12 08:44:36;;;;;;;;;;;;;;;;;;5092102;28;20404;-76
2023/12/12 08:47:12;;;;;;;;;;;;;;;;;;5090977;28;19924;-76
2023/12/12 08:49:41;;;;;;;;;;;;;;;;;;5131873;27;19926;-76
2023/12/12 08:52:15;;;;;;;;;;;;;;;;;;5093667;28;19963;-79
2023/12/12 08:54:48;;;;;;;;;;;;;;;;;;5133154;27;20381;-76
2023/12/12 08:57:17;;;;;;;;;;;;;;;;;;5105069;28;20062;-76
2023/12/12 09:00:05;;;;;;;;;;;;;;;;;;5078098;28;20388;-76
2023/12/12 09:02:37;;;;;;;;;;;;;;;;;;5111178;28;20316;-76
2023/12/12 09:05:07;;;;;;;;;;;;;;;;;;5075869;28;19927;-76
2023/12/12 09:07:45;;;;;;;;;;;;;;;;;;5110229;28;19920;-77
2023/12/12 09:10:17;;;;;;;;;;;;;;;;;;5104024;28;19966;-76
2023/12/12 09:12:55;;;;;;;;;;;;;;;;;;5087067;28;19927;-77
2023/12/12 09:15:25;;;;;;;;;;;;;;;;;;5137199;27;19920;-79
2023/12/12 09:17:51;;;;;;;;;;;;;;;;;;5121089;28;19919;-78
2023/12/12 09:20:17;;;;;;;;;;;;;;;;;;5127707;28;19926;-77
2023/12/12 09:32:04;;;;;;;;;;;;;;;;;;5074769;28;19916;-78
2023/12/12 09:34:54;;;;;;;;;;;;;;;;;;5089070;28;20558;-77
2023/12/12 09:37:46;;;;;;;;;;;;;;;;;;5100214;28;19915;-78
2023/12/12 09:40:21;;;;;;;;;;;;;;;;;;5098133;28;19925;-76
2023/12/12 09:42:49;;;;;;;;;;;;;;;;;;5112993;28;19973;-77
2023/12/12 09:45:15;;;;;;;;;;;;;;;;;;5097245;28;19920;-80
2023/12/12 09:47:42;;;;;;;;;;;;;;;;;;5130517;28;19942;-77
2023/12/12 09:50:08;;;;;;;;;;;;;;;;;;5127464;27;19920;-75
2023/12/12 09:52:34;;;;;;;;;;;;;;;;;;5133706;27;19927;-77
2023/12/12 09:55:00;;;;;;;;;;;;;;;;;;5151814;27;19919;-76
2023/12/12 09:57:26;;;;;;;;;;;;;;;;;;5116110;27;19927;-75
2023/12/12 09:59:52;;;;;;;;;;;;;;;;;;5099900;27;19930;-78
2023/12/12 10:02:18;;;;;;;;;;;;;;;;;;5112517;27;19926;-78
2023/12/12 10:04:44;;;;;;;;;;;;;;;;;;5115274;27;19919;-77
2023/12/12 10:07:10;;;;;;;;;;;;;;;;;;5099698;27;20368;-76
2023/12/12 10:09:36;;;;;;;;;;;;;;;;;;5132983;27;20314;-76
2023/12/12 10:12:02;;;;;;;;;;;;;;;;;;5093979;28;19946;-76
2023/12/12 10:14:28;;;;;;;;;;;;;;;;;;5146340;27;20006;-76
2023/12/12 10:17:10;;;;;;;;;;;;;;;;;;5113502;28;19953;-76
2023/12/12 10:19:36;;;;;;;;;;;;;;;;;;5150138;27;19919;-78
2023/12/12 10:22:04;;;;;;;;;;;;;;;;;;5150449;27;19923;-76
2023/12/12 10:24:30;;;;;;;;;;;;;;;;;;5131455;27;19926;-80
2023/12/12 10:26:56;;;;;;;;;;;;;;;;;;5130523;27;19919;-79
2023/12/12 10:29:31;;;;;;;;;;;;;;;;;;5145393;27;19962;-77
2023/12/12 10:37:34;;;;;;;;;;;;;;;;;;5136118;27;19942;-77
2023/12/12 10:40:39;;;;;;;;;;;;;;;;;;5127988;27;19915;-76
2023/12/12 10:43:06;;;;;;;;;;;;;;;;;;5115294;27;19919;-76
2023/12/12 10:45:56;;;;;;;;;;;;;;;;;;5131155;27;19945;-77
2023/12/12 10:48:28;;;;;;;;;;;;;;;;;;5145386;27;19927;-77
2023/12/12 10:51:01;;;;;;;;;;;;;;;;;;5113347;27;19930;-77
2023/12/12 10:53:54;;;;;;;;;;;;;;;;;;5123653;27;19971;-77
2023/12/12 10:56:23;;;;;;;;;;;;;;;;;;5114972;27;20018;-80
2023/12/12 10:59:07;;;;;;;;;;;;;;;;;;5100899;27;19974;-77
2023/12/12 11:01:51;;;;;;;;;;;;;;;;;;5113966;27;19926;-78
2023/12/12 11:04:19;;;;;;;;;;;;;;;;;;5147075;27;20424;-77
2023/12/12 11:07:09;;;;;;;;;;;;;;;;;;5128156;27;19973;-77
2023/12/12 11:09:39;;;;;;;;;;;;;;;;;;5110256;27;19926;-77
2023/12/12 11:12:27;;;;;;;;;;;;;;;;;;5126127;27;19920;-80
2023/12/12 11:18:23;;;;;;;;;;;;;;;;;;5131137;27;19914;-77
2023/12/12 11:20:53;;;;;;;;;;;;;;;;;;5133450;27;19923;-78
2023/12/12 11:26:44;;;;;;;;;;;;;;;;;;5112452;27;19926;-78
2023/12/12 11:29:23;;;;;;;;;;;;;;;;;;5127559;27;20249;-78
2023/12/12 11:32:26;;;;;;;;;;;;;;;;;;5132227;27;19914;-78
2023/12/12 11:35:31;;;;;;;;;;;;;;;;;;5094887;27;20293;-81
2023/12/12 11:38:13;;;;;;;;;;;;;;;;;;5130755;27;20108;-79
2023/12/12 11:41:24;;;;;;;;;;;;;;;;;;5131174;27;19920;-79
2023/12/12 11:44:15;;;;;;;;;;;;;;;;;;5126646;27;20634;-79
2023/12/12 11:47:12;;;;;;;;;;;;;;;;;;5068080;28;20019;-79
2023/12/12 11:50:15;;;;;;;;;;;;;;;;;;5066805;28;19920;-78
2023/12/12 11:53:14;;;;;;;;;;;;;;;;;;4986768;28;19921;-79
2023/12/12 11:56:07;;;;;;;;;;;;;;;;;;5020326;28;19963;-79
2023/12/12 11:59:10;;;;;;;;;;;;;;;;;;5023258;28;19931;-79
2023/12/12 12:05:17;;;;;;;;;;;;;;;;;;5026014;28;19963;-79
2023/12/12 12:08:25;;;;;;;;;;;;;;;;;;4991824;28;19920;-78
2023/12/12 12:14:51;;;;;;;;;;;;;;;;;;5063099;28;19915;-80
2023/12/12 12:23:33;;;;;;;;;;;;;;;;;;5050994;28;20019;-76
2023/12/12 12:29:56;;;;;;;;;;;;;;;;;;5086897;28;19974;-79
2023/12/12 12:33:20;;;;;;;;;;;;;;;;;;5068182;28;19924;-78
2023/12/12 12:36:19;;;;;;;;;;;;;;;;;;5064309;28;20364;-80
2023/12/12 12:38:45;;;;;;;;;;;;;;;;;;5031849;28;20456;-76
2023/12/12 12:44:13;;;;;;;;;;;;;;;;;;5084864;28;19927;-78
2023/12/12 12:46:41;;;;;;;;;;;;;;;;;;5064074;28;19920;-78
2023/12/12 12:49:34;;;;;;;;;;;;;;;;;;5049449;28;20377;-80
2023/12/12 12:55:12;;;;;;;;;;;;;;;;;;5064267;28;20015;-77
2023/12/12 12:57:53;;;;;;;;;;;;;;;;;;5063897;28;19920;-77
2023/12/12 13:00:32;;;;;;;;;;;;;;;;;;5069767;28;19928;-78
2023/12/12 13:03:17;;;;;;;;;;;;;;;;;;5067019;28;19922;-78
2023/12/12 13:06:22;;;;;;;;;;;;;;;;;;5051688;28;19967;-77
2023/12/12 13:09:09;;;;;;;;;;;;;;;;;;5059224;28;19927;-77
2023/12/12 13:11:48;;;;;;;;;;;;;;;;;;5033859;28;19927;-77
2023/12/12 13:14:43;;;;;;;;;;;;;;;;;;5020069;28;19915;-78
2023/12/12 13:17:22;;;;;;;;;;;;;;;;;;5038849;28;19968;-78
2023/12/12 13:20:15;;;;;;;;;;;;;;;;;;5006643;28;19990;-77
2023/12/12 13:23:17;;;;;;;;;;;;;;;;;;5031844;28;19926;-77
2023/12/12 13:26:17;;;;;;;;;;;;;;;;;;5036328;28;19927;-77
2023/12/12 13:29:19;;;;;;;;;;;;;;;;;;5068343;28;20440;-77
2023/12/12 13:32:01;;;;;;;;;;;;;;;;;;5018792;28;19970;-77
2023/12/12 13:34:45;;;;;;;;;;;;;;;;;;5024727;28;19922;-80
2023/12/12 13:37:23;;;;;;;;;;;;;;;;;;5036171;28;20041;-77
2023/12/12 13:40:06;;;;;;;;;;;;;;;;;;5036438;28;19921;-77
2023/12/12 13:42:48;;;;;;;;;;;;;;;;;;5035476;28;20463;-78
2023/12/12 13:45:49;;;;;;;;;;;;;;;;;;5012466;28;20387;-78
2023/12/12 13:48:21;;;;;;;;;;;;;;;;;;5030006;28;19928;-77
2023/12/12 13:51:07;;;;;;;;;;;;;;;;;;5032212;28;19916;-77
2023/12/12 13:53:53;;;;;;;;;;;;;;;;;;5031145;28;19931;-78
2023/12/12 13:56:27;;;;;;;;;;;;;;;;;;5063533;28;19927;-78
2023/12/12 13:59:12;;;;;;;;;;;;;;;;;;5114623;28;19918;-78
2023/12/12 14:01:38;;;;;;;;;;;;;;;;;;5100334;27;19920;-77
2023/12/12 14:04:18;;;;;;;;;;;;;;;;;;5129152;27;19923;-77
2023/12/12 14:07:14;;;;;;;;;;;;;;;;;;5089304;27;19919;-78
2023/12/12 14:09:46;;;;;;;;;;;;;;;;;;5124652;27;19964;-78
2023/12/12 14:12:33;;;;;;;;;;;;;;;;;;5134847;27;20332;-77
2023/12/12 14:15:18;;;;;;;;;;;;;;;;;;5134798;27;20334;-78
2023/12/12 14:17:53;;;;;;;;;;;;;;;;;;5119282;27;19926;-77
2023/12/12 14:20:23;;;;;;;;;;;;;;;;;;5115379;28;20022;-77
2023/12/12 14:23:08;;;;;;;;;;;;;;;;;;5126234;27;19958;-77
2023/12/12 14:25:55;;;;;;;;;;;;;;;;;;5135316;27;19928;-77
2023/12/12 14:28:32;;;;;;;;;;;;;;;;;;5134296;27;20059;-77
2023/12/12 14:31:21;;;;;;;;;;;;;;;;;;5135607;27;19960;-78
2023/12/12 14:33:56;;;;;;;;;;;;;;;;;;5128193;27;19920;-77
2023/12/12 14:36:32;;;;;;;;;;;;;;;;;;5132719;27;19919;-77
2023/12/12 14:39:13;;;;;;;;;;;;;;;;;;5133006;27;19919;-77
2023/12/12 14:41:51;;;;;;;;;;;;;;;;;;5142650;27;19977;-78
2023/12/12 14:44:48;;;;;;;;;;;;;;;;;;5121560;27;19961;-78
2023/12/12 14:50:56;;;;;;;;;;;;;;;;;;5106814;28;19915;-79
2023/12/12 14:56:37;;;;;;;;;;;;;;;;;;5110182;28;20378;-78
2023/12/12 14:59:20;;;;;;;;;;;;;;;;;;5103898;28;20384;-77
2023/12/12 15:02:16;;;;;;;;;;;;;;;;;;5020136;28;19920;-79
2023/12/12 15:08:27;;;;;;;;;;;;;;;;;;4960546;28;19922;-78
2023/12/12 15:11:37;;;;;;;;;;;;;;;;;;4953047;29;19926;-77
2023/12/12 15:14:43;;;;;;;;;;;;;;;;;;4953421;29;19917;-78
2023/12/12 15:20:46;;;;;;;;;;;;;;;;;;4934065;29;20281;-77
2023/12/12 15:23:48;;;;;;;;;;;;;;;;;;5009112;28;19920;-80
2023/12/12 15:26:14;;;;;;;;;;;;;;;;;;5063679;28;20571;-78
2023/12/12 15:28:43;;;;;;;;;;;;;;;;;;5118849;27;19967;-80
2023/12/12 15:31:28;;;;;;;;;;;;;;;;;;5107268;28;19928;-78
2023/12/12 15:33:55;;;;;;;;;;;;;;;;;;5090452;28;19927;-82
2023/12/12 15:36:27;;;;;;;;;;;;;;;;;;5091465;28;20352;-79
2023/12/12 15:45:04;;;;;;;;;;;;;;;;;;5112830;27;19919;-80
2023/12/12 15:50:56;;;;;;;;;;;;;;;;;;5093845;28;19919;-81
2023/12/12 15:53:57;;;;;;;;;;;;;;;;;;5051077;28;19957;-80
2023/12/12 15:56:55;;;;;;;;;;;;;;;;;;4998569;28;19925;-81
2023/12/12 16:06:13;;;;;;;;;;;;;;;;;;5045087;28;20021;-80
2023/12/12 16:18:29;;;;;;;;;;;;;;;;;;5055846;28;19967;-79
2023/12/12 16:21:29;;;;;;;;;;;;;;;;;;5050322;28;19999;-79
2023/12/12 16:33:39;;;;;;;;;;;;;;;;;;5004133;28;19992;-81
2023/12/12 16:36:05;;;;;;;;;;;;;;;;;;5027958;28;20007;-79
2023/12/12 16:38:33;;;;;;;;;;;;;;;;;;5062028;28;19921;-80
2023/12/12 16:41:14;;;;;;;;;;;;;;;;;;5032884;28;19928;-81
2023/12/12 16:46:24;;;;;;;;;;;;;;;;;;5094766;28;19931;-80
2023/12/12 16:48:52;;;;;;;;;;;;;;;;;;5086730;28;19982;-77
2023/12/12 16:51:21;;;;;;;;;;;;;;;;;;5056648;28;20066;-78
2023/12/12 16:53:47;;;;;;;;;;;;;;;;;;5040934;28;20380;-77
2023/12/12 16:56:38;;;;;;;;;;;;;;;;;;5073184;28;20299;-78
2023/12/12 16:59:34;;;;;;;;;;;;;;;;;;5115399;27;20514;-78
2023/12/12 17:02:22;;;;;;;;;;;;;;;;;;5095248;28;19919;-77
2023/12/12 17:08:18;;;;;;;;;;;;;;;;;;5112930;28;19953;-78
2023/12/12 17:10:44;;;;;;;;;;;;;;;;;;5099018;28;19920;-79
2023/12/12 17:13:09;;;;;;;;;;;;;;;;;;5076475;28;20019;-78
2023/12/12 17:15:35;;;;;;;;;;;;;;;;;;5110638;28;19920;-78
2023/12/12 17:18:07;;;;;;;;;;;;;;;;;;5128333;27;19927;-78
2023/12/12 17:20:33;;;;;;;;;;;;;;;;;;5129305;27;19920;-78
2023/12/12 17:22:59;;;;;;;;;;;;;;;;;;5109597;28;20331;-77
2023/12/12 17:25:27;;;;;;;;;;;;;;;;;;5112083;28;19945;-78
2023/12/12 17:27:53;;;;;;;;;;;;;;;;;;5126203;27;19919;-79
2023/12/12 17:30:21;;;;;;;;;;;;;;;;;;5129581;27;19919;-79
2023/12/12 17:32:47;;;;;;;;;;;;;;;;;;5124900;27;20420;-79
2023/12/12 17:35:13;;;;;;;;;;;;;;;;;;5129738;27;20051;-80
2023/12/12 17:37:40;;;;;;;;;;;;;;;;;;5100732;27;20292;-80
2023/12/12 17:40:06;;;;;;;;;;;;;;;;;;5134864;27;19920;-81
2023/12/12 17:42:32;;;;;;;;;;;;;;;;;;5098991;27;19919;-80
2023/12/12 17:44:58;;;;;;;;;;;;;;;;;;5098548;27;19927;-82
2023/12/12 17:47:23;;;;;;;;;;;;;;;;;;5116413;27;19930;-79
2023/12/12 17:49:49;;;;;;;;;;;;;;;;;;5099949;27;19942;-79
2023/12/12 17:52:15;;;;;;;;;;;;;;;;;;5116766;27;20033;-79
2023/12/12 17:54:48;;;;;;;;;;;;;;;;;;5091854;27;19919;-80
2023/12/12 17:57:14;;;;;;;;;;;;;;;;;;5117801;27;19923;-79
2023/12/12 17:59:40;;;;;;;;;;;;;;;;;;5113873;27;19938;-78
2023/12/12 18:02:08;;;;;;;;;;;;;;;;;;5124532;27;19920;-79
2023/12/12 18:04:40;;;;;;;;;;;;;;;;;;5132742;27;19920;-79
2023/12/12 18:07:07;;;;;;;;;;;;;;;;;;5115963;27;19976;-78
2023/12/12 18:09:52;;;;;;;;;;;;;;;;;;5124856;27;19960;-78
2023/12/12 18:12:35;;;;;;;;;;;;;;;;;;5131365;27;19923;-79
2023/12/12 18:15:33;;;;;;;;;;;;;;;;;;5093365;27;20433;-80
2023/12/12 18:18:23;;;;;;;;;;;;;;;;;;5116452;27;19919;-80
2023/12/12 18:21:18;;;;;;;;;;;;;;;;;;5111341;27;19922;-80
2023/12/12 18:24:07;;;;;;;;;;;;;;;;;;5111165;27;19924;-80
2023/12/12 18:26:58;;;;;;;;;;;;;;;;;;5129034;27;19915;-78
2023/12/12 18:29:39;;;;;;;;;;;;;;;;;;5131724;27;19966;-77
2023/12/12 18:32:23;;;;;;;;;;;;;;;;;;5113637;27;19964;-79
2023/12/12 18:35:11;;;;;;;;;;;;;;;;;;5133390;27;20002;-79
2023/12/12 18:37:41;;;;;;;;;;;;;;;;;;5108441;28;19920;-79
2023/12/12 18:43:18;;;;;;;;;;;;;;;;;;5107118;28;19923;-78
2023/12/12 18:45:55;;;;;;;;;;;;;;;;;;5093844;28;19972;-80
2023/12/12 18:48:40;;;;;;;;;;;;;;;;;;5109075;27;19962;-80
2023/12/12 18:51:17;;;;;;;;;;;;;;;;;;5105581;27;19920;-79
2023/12/12 18:53:46;;;;;;;;;;;;;;;;;;5094802;28;19923;-79
2023/12/12 18:56:15;;;;;;;;;;;;;;;;;;5101928;28;19944;-81
2023/12/12 18:58:46;;;;;;;;;;;;;;;;;;5087001;28;20045;-80